Anzahl Datensätze: 288
min. Temperatur: 16.1 °C
max. Temperatur: 27.7 °C
max. Windgeschwindigkeit: 24.1 km/h
Niederschlagsumme: 1.6 mm
| Datum |
Zeit |
Temp °C |
Feuchte % |
Taupunkt °C |
Luftdruck hPa |
Wind km/h |
Windrichtung |
Strahlung w/m² |
Niederschlag mm |
|---|---|---|---|---|---|---|---|---|---|
| 14.06.2025 | 00:03 | 20.8 | 85 | 18.2 | 1016.6 | 0.0 | SSW | 0 | 0.0 |
| 14.06.2025 | 00:09 | 20.7 | 85 | 18.1 | 1016.8 | 0.0 | SSW | 0 | 0.0 |
| 14.06.2025 | 00:12 | 20.7 | 85 | 18.1 | 1016.7 | 0.0 | SSW | 0 | 0.0 |
| 14.06.2025 | 00:18 | 20.5 | 85 | 17.9 | 1016.5 | 0.0 | SSW | 0 | 0.0 |
| 14.06.2025 | 00:24 | 20.4 | 86 | 18.0 | 1016.7 | 0.0 | SSW | 0 | 0.0 |
| 14.06.2025 | 00:27 | 20.4 | 86 | 18.0 | 1016.8 | 0.0 | SSW | 0 | 0.0 |
| 14.06.2025 | 00:33 | 20.3 | 86 | 17.9 | 1016.6 | 0.0 | SSW | 0 | 0.0 |
| 14.06.2025 | 00:39 | 20.3 | 86 | 17.9 | 1016.5 | 0.0 | SSW | 0 | 0.0 |
| 14.06.2025 | 00:42 | 20.2 | 85 | 17.6 | 1016.6 | 0.0 | SSW | 0 | 0.0 |
| 14.06.2025 | 00:48 | 20.1 | 86 | 17.7 | 1016.5 | 0.0 | SSW | 0 | 0.0 |
| 14.06.2025 | 00:54 | 20.0 | 86 | 17.6 | 1016.3 | 0.0 | SSW | 0 | 0.0 |
| 14.06.2025 | 00:57 | 19.9 | 86 | 17.5 | 1016.2 | 0.0 | SSW | 0 | 0.0 |
| 14.06.2025 | 01:03 | 19.9 | 86 | 17.5 | 1016.2 | 0.0 | SSW | 0 | 0.0 |
| 14.06.2025 | 01:09 | 19.8 | 85 | 17.2 | 1016.2 | 0.0 | SSW | 0 | 0.0 |
| 14.06.2025 | 01:12 | 19.7 | 85 | 17.1 | 1016.2 | 0.0 | SSW | 0 | 0.0 |
| 14.06.2025 | 01:18 | 19.6 | 85 | 17.0 | 1015.9 | 0.0 | SSW | 0 | 0.0 |
| 14.06.2025 | 01:24 | 19.6 | 86 | 17.2 | 1015.8 | 0.0 | SSW | 0 | 0.0 |
| 14.06.2025 | 01:27 | 19.5 | 86 | 17.1 | 1015.8 | 0.0 | SSW | 0 | 0.0 |
| 14.06.2025 | 01:33 | 19.4 | 86 | 17.0 | 1015.7 | 0.0 | SSW | 0 | 0.0 |
| 14.06.2025 | 01:39 | 19.4 | 86 | 17.0 | 1015.7 | 0.0 | SSW | 0 | 0.0 |
| 14.06.2025 | 01:42 | 19.4 | 85 | 16.8 | 1015.8 | 0.0 | SSW | 0 | 0.0 |
| 14.06.2025 | 01:48 | 19.3 | 86 | 16.9 | 1015.7 | 0.0 | SSW | 0 | 0.0 |
| 14.06.2025 | 01:54 | 19.2 | 86 | 16.8 | 1015.7 | 0.0 | SSW | 0 | 0.0 |
| 14.06.2025 | 01:57 | 19.2 | 86 | 16.8 | 1015.7 | 0.0 | SSW | 0 | 0.0 |
| 14.06.2025 | 02:03 | 19.1 | 86 | 16.7 | 1015.8 | 0.0 | SSW | 0 | 0.0 |
| 14.06.2025 | 02:09 | 19.0 | 86 | 16.6 | 1015.9 | 0.0 | SSW | 0 | 0.0 |
| 14.06.2025 | 02:12 | 18.9 | 86 | 16.5 | 1015.8 | 0.0 | SSW | 0 | 0.0 |
| 14.06.2025 | 02:18 | 18.8 | 86 | 16.4 | 1015.7 | 0.0 | SSW | 0 | 0.0 |
| 14.06.2025 | 02:24 | 18.7 | 86 | 16.3 | 1015.8 | 0.0 | SSW | 0 | 0.0 |
| 14.06.2025 | 02:27 | 18.6 | 86 | 16.2 | 1015.8 | 0.0 | SSW | 0 | 0.0 |
| 14.06.2025 | 02:33 | 18.5 | 86 | 16.1 | 1015.9 | 0.0 | SSW | 0 | 0.0 |
| 14.06.2025 | 02:39 | 18.4 | 87 | 16.2 | 1015.8 | 0.0 | SSW | 0 | 0.0 |
| 14.06.2025 | 02:42 | 18.3 | 87 | 16.1 | 1015.8 | 0.0 | SSW | 0 | 0.0 |
| 14.06.2025 | 02:48 | 18.3 | 87 | 16.1 | 1015.9 | 0.0 | SW | 0 | 0.0 |
| 14.06.2025 | 02:54 | 18.2 | 87 | 16.0 | 1016.0 | 0.0 | SW | 0 | 0.0 |
| 14.06.2025 | 02:57 | 18.2 | 87 | 16.0 | 1015.9 | 0.0 | SW | 0 | 0.0 |
| 14.06.2025 | 03:03 | 18.1 | 87 | 15.9 | 1015.8 | 0.0 | SW | 0 | 0.0 |
| 14.06.2025 | 03:09 | 18.1 | 87 | 15.9 | 1015.8 | 0.0 | SW | 0 | 0.0 |
| 14.06.2025 | 03:12 | 18.1 | 87 | 15.9 | 1015.9 | 0.0 | SW | 0 | 0.0 |
| 14.06.2025 | 03:18 | 17.9 | 87 | 15.7 | 1016.1 | 0.0 | SW | 0 | 0.0 |
| 14.06.2025 | 03:24 | 17.8 | 87 | 15.6 | 1016.1 | 0.0 | SW | 0 | 0.0 |
| 14.06.2025 | 03:27 | 17.7 | 87 | 15.5 | 1016.1 | 0.0 | SW | 0 | 0.0 |
| 14.06.2025 | 03:33 | 17.7 | 87 | 15.5 | 1016.2 | 0.0 | SW | 0 | 0.0 |
| 14.06.2025 | 03:39 | 17.6 | 88 | 15.6 | 1016.3 | 0.0 | SW | 0 | 0.0 |
| 14.06.2025 | 03:42 | 17.6 | 88 | 15.6 | 1016.3 | 0.0 | SW | 0 | 0.0 |
| 14.06.2025 | 03:48 | 17.5 | 88 | 15.5 | 1016.2 | 0.0 | SW | 0 | 0.0 |
| 14.06.2025 | 03:54 | 17.4 | 87 | 15.2 | 1016.1 | 0.0 | SW | 0 | 0.0 |
| 14.06.2025 | 03:57 | 17.4 | 87 | 15.2 | 1016.2 | 0.0 | SW | 0 | 0.0 |
| 14.06.2025 | 04:03 | 17.3 | 87 | 15.1 | 1016.1 | 0.0 | SW | 0 | 0.0 |
| 14.06.2025 | 04:09 | 17.2 | 88 | 15.2 | 1016.2 | 0.0 | SW | 0 | 0.0 |
| 14.06.2025 | 04:12 | 17.2 | 88 | 15.2 | 1016.2 | 0.0 | SW | 0 | 0.0 |
| 14.06.2025 | 04:18 | 17.1 | 88 | 15.1 | 1016.1 | 0.0 | SW | 0 | 0.0 |
| 14.06.2025 | 04:24 | 17.0 | 88 | 15.0 | 1016.1 | 0.0 | SW | 0 | 0.0 |
| 14.06.2025 | 04:27 | 16.9 | 88 | 14.9 | 1016.1 | 0.0 | SW | 0 | 0.0 |
| 14.06.2025 | 04:33 | 16.9 | 88 | 14.9 | 1016.1 | 0.0 | SW | 0 | 0.0 |
| 14.06.2025 | 04:39 | 16.8 | 88 | 14.8 | 1016.2 | 0.0 | SW | 0 | 0.0 |
| 14.06.2025 | 04:42 | 16.7 | 88 | 14.7 | 1016.2 | 0.0 | SW | 0 | 0.0 |
| 14.06.2025 | 04:48 | 16.6 | 88 | 14.6 | 1016.4 | 0.0 | SW | 0 | 0.0 |
| 14.06.2025 | 04:54 | 16.6 | 88 | 14.6 | 1016.5 | 0.0 | SW | 0 | 0.0 |
| 14.06.2025 | 04:57 | 16.5 | 88 | 14.5 | 1016.5 | 0.0 | SW | 0 | 0.0 |
| 14.06.2025 | 05:03 | 16.5 | 88 | 14.5 | 1016.5 | 0.0 | SW | 0 | 0.0 |
| 14.06.2025 | 05:09 | 16.4 | 88 | 14.4 | 1016.3 | 0.0 | SW | 0 | 0.0 |
| 14.06.2025 | 05:12 | 16.4 | 88 | 14.4 | 1016.2 | 0.0 | SW | 0 | 0.0 |
| 14.06.2025 | 05:18 | 16.4 | 88 | 14.4 | 1016.3 | 0.0 | SW | 0 | 0.0 |
| 14.06.2025 | 05:24 | 16.3 | 88 | 14.3 | 1016.3 | 0.0 | SW | 0 | 0.0 |
| 14.06.2025 | 05:27 | 16.3 | 88 | 14.3 | 1016.4 | 0.0 | SW | 0 | 0.0 |
| 14.06.2025 | 05:33 | 16.3 | 88 | 14.3 | 1016.4 | 0.0 | SW | 0 | 0.0 |
| 14.06.2025 | 05:39 | 16.2 | 88 | 14.2 | 1016.5 | 0.0 | SW | 0 | 0.0 |
| 14.06.2025 | 05:42 | 16.3 | 88 | 14.3 | 1016.5 | 0.0 | SW | 5 | 0.0 |
| 14.06.2025 | 05:48 | 16.1 | 88 | 14.1 | 1016.5 | 0.0 | SW | 7 | 0.0 |
| 14.06.2025 | 05:54 | 16.1 | 88 | 14.1 | 1016.5 | 0.0 | SW | 9 | 0.0 |
| 14.06.2025 | 05:57 | 16.1 | 88 | 14.1 | 1016.5 | 0.0 | SW | 11 | 0.0 |
| 14.06.2025 | 06:03 | 16.1 | 88 | 14.1 | 1016.7 | 0.0 | N | 12 | 0.0 |
| 14.06.2025 | 06:09 | 16.1 | 88 | 14.1 | 1016.7 | 0.0 | NNO | 18 | 0.0 |
| 14.06.2025 | 06:12 | 16.1 | 88 | 14.1 | 1016.8 | 0.0 | N | 19 | 0.0 |
| 14.06.2025 | 06:18 | 16.1 | 88 | 14.1 | 1016.7 | 0.0 | SSO | 26 | 0.0 |
| 14.06.2025 | 06:24 | 16.1 | 88 | 14.1 | 1016.8 | 0.0 | SSO | 33 | 0.0 |
| 14.06.2025 | 06:27 | 16.2 | 88 | 14.2 | 1016.6 | 0.0 | SSO | 35 | 0.0 |
| 14.06.2025 | 06:33 | 16.2 | 88 | 14.2 | 1016.4 | 0.0 | NNO | 42 | 0.0 |
| 14.06.2025 | 06:39 | 16.3 | 88 | 14.3 | 1016.3 | 0.0 | NNO | 53 | 0.0 |
| 14.06.2025 | 06:42 | 16.3 | 88 | 14.3 | 1016.2 | 0.0 | O | 56 | 0.0 |
| 14.06.2025 | 06:48 | 16.4 | 88 | 14.4 | 1016.4 | 0.0 | NNO | 69 | 0.0 |
| 14.06.2025 | 06:54 | 16.5 | 88 | 14.5 | 1016.5 | 0.0 | NNO | 77 | 0.0 |
| 14.06.2025 | 06:57 | 16.6 | 88 | 14.6 | 1016.5 | 0.0 | NNO | 81 | 0.0 |
| 14.06.2025 | 07:03 | 16.7 | 88 | 14.7 | 1016.7 | 0.0 | NNO | 86 | 0.0 |
| 14.06.2025 | 07:09 | 16.9 | 88 | 14.9 | 1016.9 | 0.0 | OSO | 86 | 0.0 |
| 14.06.2025 | 07:12 | 17.0 | 88 | 15.0 | 1016.9 | 0.0 | OSO | 88 | 0.0 |
| 14.06.2025 | 07:18 | 17.2 | 88 | 15.2 | 1016.9 | 0.0 | NNO | 91 | 0.0 |
| 14.06.2025 | 07:24 | 17.4 | 88 | 15.4 | 1016.9 | 0.0 | ONO | 98 | 0.0 |
| 14.06.2025 | 07:27 | 17.6 | 88 | 15.6 | 1016.9 | 0.0 | ONO | 104 | 0.0 |
| 14.06.2025 | 07:33 | 17.7 | 87 | 15.5 | 1016.9 | 0.0 | ONO | 113 | 0.0 |
| 14.06.2025 | 07:39 | 17.9 | 87 | 15.7 | 1016.9 | 0.0 | NO | 113 | 0.0 |
| 14.06.2025 | 07:42 | 18.1 | 87 | 15.9 | 1016.7 | 0.0 | NO | 111 | 0.0 |
| 14.06.2025 | 07:48 | 18.3 | 86 | 15.9 | 1016.7 | 0.0 | NO | 109 | 0.0 |
| 14.06.2025 | 07:54 | 18.6 | 86 | 16.2 | 1016.8 | 0.0 | SO | 113 | 0.0 |
| 14.06.2025 | 07:57 | 18.7 | 86 | 16.3 | 1016.7 | 0.0 | SO | 114 | 0.0 |
| 14.06.2025 | 08:03 | 18.9 | 85 | 16.3 | 1016.8 | 0.0 | SO | 116 | 0.0 |
| 14.06.2025 | 08:09 | 19.1 | 85 | 16.5 | 1016.7 | 0.0 | N | 114 | 0.0 |
| 14.06.2025 | 08:12 | 19.2 | 84 | 16.4 | 1016.7 | 0.0 | O | 113 | 0.0 |
| 14.06.2025 | 08:18 | 19.4 | 84 | 16.6 | 1016.5 | 0.0 | NNO | 111 | 0.0 |
| 14.06.2025 | 08:24 | 19.6 | 84 | 16.8 | 1016.5 | 0.0 | O | 107 | 0.0 |
| 14.06.2025 | 08:27 | 19.7 | 83 | 16.7 | 1016.5 | 0.0 | O | 107 | 0.0 |
| 14.06.2025 | 08:33 | 19.8 | 83 | 16.8 | 1016.4 | 0.0 | O | 109 | 0.0 |
| 14.06.2025 | 08:39 | 19.9 | 83 | 16.9 | 1016.6 | 0.0 | N | 118 | 0.0 |
| 14.06.2025 | 08:42 | 20.1 | 83 | 17.1 | 1016.6 | 0.0 | ONO | 125 | 0.0 |
| 14.06.2025 | 08:48 | 20.2 | 83 | 17.2 | 1016.6 | 0.0 | ONO | 207 | 0.0 |
| 14.06.2025 | 08:54 | 20.5 | 82 | 17.3 | 1016.8 | 0.0 | N | 276 | 0.0 |
| 14.06.2025 | 08:57 | 20.7 | 82 | 17.5 | 1016.8 | 0.0 | N | 290 | 0.0 |
| 14.06.2025 | 09:03 | 20.9 | 81 | 17.5 | 1016.5 | 0.0 | NO | 322 | 0.0 |
| 14.06.2025 | 09:09 | 21.2 | 79 | 17.4 | 1016.6 | 0.0 | NNW | 338 | 0.0 |
| 14.06.2025 | 09:12 | 21.4 | 79 | 17.6 | 1016.6 | 0.0 | W | 362 | 0.0 |
| 14.06.2025 | 09:18 | 21.8 | 79 | 18.0 | 1016.6 | 0.0 | SSO | 367 | 0.0 |
| 14.06.2025 | 09:24 | 22.3 | 77 | 18.1 | 1016.5 | 0.0 | NNO | 408 | 0.0 |
| 14.06.2025 | 09:27 | 22.4 | 76 | 18.0 | 1016.5 | 0.0 | SO | 415 | 0.0 |
| 14.06.2025 | 09:33 | 22.9 | 75 | 18.2 | 1016.4 | 0.0 | NNW | 459 | 0.0 |
| 14.06.2025 | 09:39 | 23.3 | 73 | 18.2 | 1016.3 | 0.0 | WNW | 450 | 0.0 |
| 14.06.2025 | 09:42 | 23.4 | 72 | 18.1 | 1016.3 | 0.0 | WNW | 459 | 0.0 |
| 14.06.2025 | 09:48 | 23.7 | 71 | 18.1 | 1016.4 | 0.0 | S | 450 | 0.0 |
| 14.06.2025 | 09:54 | 23.9 | 70 | 18.1 | 1016.4 | 1.4 | NW | 512 | 0.0 |
| 14.06.2025 | 09:57 | 24.1 | 69 | 18.1 | 1016.6 | 1.4 | W | 503 | 0.0 |
| 14.06.2025 | 10:03 | 24.2 | 69 | 18.2 | 1016.5 | 3.2 | SSW | 513 | 0.0 |
| 14.06.2025 | 10:09 | 24.2 | 68 | 17.9 | 1016.4 | 4.7 | SSO | 482 | 0.0 |
| 14.06.2025 | 10:12 | 24.3 | 68 | 18.0 | 1016.3 | 3.2 | NW | 510 | 0.0 |
| 14.06.2025 | 10:18 | 24.4 | 68 | 18.1 | 1016.5 | 1.4 | SW | 545 | 0.0 |
| 14.06.2025 | 10:24 | 24.7 | 68 | 18.4 | 1016.2 | 1.4 | SSO | 538 | 0.0 |
| 14.06.2025 | 10:27 | 24.8 | 68 | 18.5 | 1016.2 | 1.4 | SSO | 554 | 0.0 |
| 14.06.2025 | 10:33 | 25.1 | 67 | 18.5 | 1016.2 | 1.4 | WNW | 563 | 0.0 |
| 14.06.2025 | 10:39 | 25.2 | 66 | 18.4 | 1016.2 | 1.4 | N | 497 | 0.0 |
| 14.06.2025 | 10:42 | 25.3 | 65 | 18.2 | 1016.2 | 1.4 | WSW | 541 | 0.0 |
| 14.06.2025 | 10:48 | 25.4 | 66 | 18.6 | 1016.1 | 1.4 | SO | 680 | 0.0 |
| 14.06.2025 | 10:54 | 25.6 | 65 | 18.5 | 1016.0 | 1.4 | S | 367 | 0.0 |
| 14.06.2025 | 10:57 | 25.7 | 65 | 18.6 | 1016.0 | 1.4 | WSW | 396 | 0.0 |
| 14.06.2025 | 11:03 | 25.8 | 65 | 18.7 | 1015.8 | 0.0 | SSO | 396 | 0.0 |
| 14.06.2025 | 11:09 | 26.0 | 66 | 19.2 | 1015.7 | 0.0 | NNO | 740 | 0.0 |
| 14.06.2025 | 11:12 | 26.2 | 64 | 18.8 | 1015.9 | 0.0 | S | 687 | 0.0 |
| 14.06.2025 | 11:18 | 26.1 | 64 | 18.8 | 1016.7 | 1.4 | SSW | 536 | 0.0 |
| 14.06.2025 | 11:24 | 26.1 | 66 | 19.2 | 1017.3 | 4.7 | SW | 670 | 0.0 |
| 14.06.2025 | 11:27 | 26.0 | 66 | 19.2 | 1017.3 | 6.5 | SW | 622 | 0.0 |
| 14.06.2025 | 11:33 | 26.0 | 64 | 18.7 | 1017.4 | 6.5 | NW | 700 | 0.0 |
| 14.06.2025 | 11:39 | 26.3 | 64 | 18.9 | 1017.4 | 6.5 | SSW | 649 | 0.0 |
| 14.06.2025 | 11:42 | 26.4 | 64 | 19.0 | 1017.4 | 6.5 | SSO | 621 | 0.0 |
| 14.06.2025 | 11:48 | 26.6 | 64 | 19.2 | 1017.4 | 4.7 | SW | 675 | 0.0 |
| 14.06.2025 | 11:54 | 26.8 | 64 | 19.4 | 1017.4 | 4.7 | S | 635 | 0.0 |
| 14.06.2025 | 11:57 | 26.9 | 65 | 19.8 | 1017.4 | 4.7 | SSO | 670 | 0.0 |
| 14.06.2025 | 12:03 | 27.1 | 65 | 20.0 | 1017.6 | 6.5 | SW | 612 | 0.0 |
| 14.06.2025 | 12:09 | 27.2 | 65 | 20.0 | 1017.5 | 4.7 | OSO | 712 | 0.0 |
| 14.06.2025 | 12:12 | 27.3 | 64 | 19.9 | 1017.5 | 4.7 | O | 712 | 0.0 |
| 14.06.2025 | 12:18 | 27.3 | 62 | 19.4 | 1017.6 | 6.5 | SO | 805 | 0.0 |
| 14.06.2025 | 12:24 | 27.6 | 60 | 19.1 | 1017.6 | 7.9 | SSO | 754 | 0.0 |
| 14.06.2025 | 12:27 | 27.7 | 61 | 19.5 | 1017.7 | 7.9 | SO | 777 | 0.0 |
| 14.06.2025 | 12:33 | 27.6 | 62 | 19.7 | 1017.7 | 6.5 | SW | 376 | 0.0 |
| 14.06.2025 | 12:39 | 27.2 | 64 | 19.8 | 1017.8 | 4.7 | SO | 373 | 0.0 |
| 14.06.2025 | 12:42 | 26.9 | 65 | 19.8 | 1017.9 | 6.5 | OSO | 438 | 0.0 |
| 14.06.2025 | 12:48 | 26.0 | 68 | 19.6 | 1018.1 | 11.2 | SSO | 172 | 0.0 |
| 14.06.2025 | 12:54 | 25.2 | 70 | 19.3 | 1018.1 | 11.2 | SSO | 353 | 0.0 |
| 14.06.2025 | 12:57 | 25.0 | 71 | 19.4 | 1018.2 | 9.7 | SO | 508 | 0.0 |
| 14.06.2025 | 13:03 | 24.9 | 70 | 19.0 | 1018.2 | 9.7 | O | 443 | 0.0 |
| 14.06.2025 | 13:09 | 25.1 | 69 | 19.0 | 1018.2 | 7.9 | OSO | 415 | 0.0 |
| 14.06.2025 | 13:12 | 25.1 | 69 | 19.0 | 1018.2 | 6.5 | SO | 353 | 0.0 |
| 14.06.2025 | 13:18 | 25.2 | 68 | 18.9 | 1018.2 | 4.7 | NW | 422 | 0.0 |
| 14.06.2025 | 13:24 | 25.2 | 68 | 18.9 | 1017.9 | 3.2 | NNW | 350 | 0.0 |
| 14.06.2025 | 13:27 | 25.1 | 67 | 18.5 | 1018.1 | 4.7 | S | 352 | 0.0 |
| 14.06.2025 | 13:33 | 24.9 | 67 | 18.3 | 1018.1 | 3.2 | NNW | 323 | 0.0 |
| 14.06.2025 | 13:39 | 24.6 | 67 | 18.1 | 1018.3 | 3.2 | N | 253 | 0.0 |
| 14.06.2025 | 13:42 | 24.6 | 67 | 18.1 | 1018.3 | 3.2 | NNW | 251 | 0.0 |
| 14.06.2025 | 13:48 | 24.3 | 66 | 17.5 | 1018.4 | 3.2 | WSW | 156 | 0.0 |
| 14.06.2025 | 13:54 | 24.1 | 67 | 17.6 | 1018.8 | 3.2 | S | 81 | 0.0 |
| 14.06.2025 | 13:57 | 23.8 | 66 | 17.1 | 1018.9 | 3.2 | SSO | 60 | 0.0 |
| 14.06.2025 | 14:03 | 23.4 | 67 | 16.9 | 1018.7 | 4.7 | SO | 46 | 0.0 |
| 14.06.2025 | 14:09 | 23.2 | 68 | 17.0 | 1018.6 | 4.7 | SSO | 49 | 0.0 |
| 14.06.2025 | 14:12 | 23.1 | 69 | 17.1 | 1018.7 | 3.2 | SSO | 56 | 0.0 |
| 14.06.2025 | 14:18 | 22.7 | 75 | 18.0 | 1018.5 | 4.7 | SSO | 84 | 0.0 |
| 14.06.2025 | 14:24 | 21.7 | 79 | 17.9 | 1018.6 | 3.2 | SSO | 213 | 0.6 |
| 14.06.2025 | 14:27 | 21.4 | 81 | 18.0 | 1018.6 | 3.2 | SSO | 336 | 1.6 |
| 14.06.2025 | 14:33 | 21.1 | 84 | 18.3 | 1018.6 | 3.2 | SSO | 338 | 1.6 |
| 14.06.2025 | 14:39 | 20.8 | 85 | 18.2 | 1018.6 | 3.2 | S | 376 | 1.6 |
| 14.06.2025 | 14:42 | 21.0 | 85 | 18.4 | 1018.5 | 3.2 | SO | 329 | 1.6 |
| 14.06.2025 | 14:48 | 21.3 | 86 | 18.9 | 1018.4 | 1.4 | NW | 475 | 1.6 |
| 14.06.2025 | 14:54 | 21.6 | 86 | 19.2 | 1018.6 | 1.4 | NNO | 301 | 1.6 |
| 14.06.2025 | 14:57 | 21.5 | 86 | 19.1 | 1018.6 | 1.4 | NW | 287 | 1.6 |
| 14.06.2025 | 15:03 | 21.4 | 85 | 18.8 | 1018.4 | 1.4 | WSW | 221 | 1.6 |
| 14.06.2025 | 15:09 | 21.4 | 85 | 18.8 | 1018.2 | 1.4 | N | 179 | 1.6 |
| 14.06.2025 | 15:12 | 21.6 | 86 | 19.2 | 1018.1 | 1.4 | N | 188 | 1.6 |
| 14.06.2025 | 15:18 | 21.8 | 86 | 19.4 | 1018.2 | 1.4 | N | 239 | 1.6 |
| 14.06.2025 | 15:24 | 21.7 | 86 | 19.3 | 1018.5 | 1.4 | W | 294 | 1.6 |
| 14.06.2025 | 15:27 | 21.7 | 86 | 19.3 | 1018.5 | 3.2 | NW | 320 | 1.6 |
| 14.06.2025 | 15:33 | 21.7 | 85 | 19.1 | 1018.6 | 1.4 | SO | 299 | 1.6 |
| 14.06.2025 | 15:39 | 21.8 | 85 | 19.2 | 1018.5 | 3.2 | SSO | 246 | 1.6 |
| 14.06.2025 | 15:42 | 21.8 | 85 | 19.2 | 1018.4 | 3.2 | SSW | 288 | 1.6 |
| 14.06.2025 | 15:48 | 21.9 | 84 | 19.1 | 1018.3 | 3.2 | SSW | 854 | 1.6 |
| 14.06.2025 | 15:54 | 22.3 | 83 | 19.3 | 1018.3 | 1.4 | SSO | 694 | 1.6 |
| 14.06.2025 | 15:57 | 22.6 | 82 | 19.4 | 1018.2 | 3.2 | SO | 649 | 1.6 |
| 14.06.2025 | 16:03 | 22.9 | 81 | 19.5 | 1018.3 | 3.2 | SSW | 619 | 1.6 |
| 14.06.2025 | 16:09 | 23.3 | 78 | 19.2 | 1018.2 | 3.2 | SW | 608 | 1.6 |
| 14.06.2025 | 16:12 | 23.4 | 77 | 19.1 | 1018.3 | 1.4 | WSW | 599 | 1.6 |
| 14.06.2025 | 16:18 | 24.1 | 77 | 19.8 | 1018.3 | 1.4 | SW | 589 | 1.6 |
| 14.06.2025 | 16:24 | 24.4 | 75 | 19.7 | 1018.3 | 3.2 | SO | 566 | 1.6 |
| 14.06.2025 | 16:27 | 24.5 | 74 | 19.6 | 1018.2 | 3.2 | SSO | 573 | 1.6 |
| 14.06.2025 | 16:33 | 24.7 | 71 | 19.1 | 1018.4 | 3.2 | OSO | 564 | 1.6 |
| 14.06.2025 | 16:39 | 25.0 | 72 | 19.6 | 1018.4 | 3.2 | SSO | 554 | 1.6 |
| 14.06.2025 | 16:42 | 25.1 | 70 | 19.2 | 1018.3 | 3.2 | SO | 559 | 1.6 |
| 14.06.2025 | 16:48 | 25.2 | 69 | 19.1 | 1018.2 | 3.2 | OSO | 561 | 1.6 |
| 14.06.2025 | 16:54 | 25.3 | 72 | 19.9 | 1018.2 | 3.2 | WSW | 287 | 1.6 |
| 14.06.2025 | 16:57 | 25.4 | 72 | 20.0 | 1018.2 | 1.4 | W | 322 | 1.6 |
| 14.06.2025 | 17:03 | 25.4 | 71 | 19.8 | 1018.2 | 1.4 | WNW | 232 | 1.6 |
| 14.06.2025 | 17:09 | 25.1 | 73 | 19.9 | 1018.0 | 1.4 | W | 160 | 1.6 |
| 14.06.2025 | 17:12 | 24.9 | 75 | 20.2 | 1018.0 | 1.4 | NW | 134 | 1.6 |
| 14.06.2025 | 17:18 | 24.5 | 77 | 20.2 | 1018.0 | 1.4 | NW | 111 | 1.6 |
| 14.06.2025 | 17:24 | 24.2 | 78 | 20.1 | 1017.9 | 1.4 | NNW | 95 | 1.6 |
| 14.06.2025 | 17:27 | 24.1 | 80 | 20.4 | 1018.0 | 1.4 | WNW | 90 | 1.6 |
| 14.06.2025 | 17:33 | 23.7 | 81 | 20.2 | 1017.9 | 1.4 | WNW | 95 | 1.6 |
| 14.06.2025 | 17:39 | 23.5 | 82 | 20.2 | 1017.8 | 1.4 | NW | 104 | 1.6 |
| 14.06.2025 | 17:42 | 23.4 | 82 | 20.1 | 1017.8 | 1.4 | WNW | 116 | 1.6 |
| 14.06.2025 | 17:48 | 23.2 | 82 | 20.0 | 1017.8 | 1.4 | W | 139 | 1.6 |
| 14.06.2025 | 17:54 | 23.2 | 83 | 20.2 | 1017.8 | 1.4 | W | 199 | 1.6 |
| 14.06.2025 | 17:57 | 23.3 | 83 | 20.2 | 1017.8 | 1.4 | SSW | 190 | 1.6 |
| 14.06.2025 | 18:03 | 23.5 | 83 | 20.4 | 1017.8 | 0.0 | NW | 171 | 1.6 |
| 14.06.2025 | 18:09 | 23.5 | 82 | 20.2 | 1017.8 | 1.4 | SSW | 155 | 1.6 |
| 14.06.2025 | 18:12 | 23.5 | 83 | 20.4 | 1017.7 | 1.4 | W | 206 | 1.6 |
| 14.06.2025 | 18:18 | 23.9 | 83 | 20.8 | 1017.8 | 1.4 | NW | 420 | 1.6 |
| 14.06.2025 | 18:24 | 24.3 | 82 | 21.0 | 1017.6 | 1.4 | NW | 364 | 1.6 |
| 14.06.2025 | 18:27 | 24.5 | 81 | 21.0 | 1017.5 | 1.4 | NW | 330 | 1.6 |
| 14.06.2025 | 18:33 | 24.9 | 79 | 21.0 | 1017.5 | 1.4 | WNW | 290 | 1.6 |
| 14.06.2025 | 18:39 | 25.2 | 77 | 20.9 | 1017.5 | 1.4 | NNW | 265 | 1.6 |
| 14.06.2025 | 18:42 | 25.3 | 76 | 20.8 | 1017.5 | 1.4 | WNW | 258 | 1.6 |
| 14.06.2025 | 18:48 | 25.4 | 74 | 20.4 | 1017.4 | 1.4 | WNW | 243 | 1.6 |
| 14.06.2025 | 18:54 | 25.6 | 75 | 20.8 | 1017.4 | 1.4 | W | 230 | 1.6 |
| 14.06.2025 | 18:57 | 25.7 | 74 | 20.7 | 1017.5 | 1.4 | NW | 221 | 1.6 |
| 14.06.2025 | 19:03 | 25.6 | 75 | 20.8 | 1017.5 | 1.4 | WNW | 202 | 1.6 |
| 14.06.2025 | 19:09 | 25.4 | 74 | 20.4 | 1017.5 | 1.4 | W | 178 | 1.6 |
| 14.06.2025 | 19:12 | 25.3 | 75 | 20.5 | 1017.6 | 1.4 | WSW | 179 | 1.6 |
| 14.06.2025 | 19:18 | 25.2 | 76 | 20.7 | 1017.5 | 1.4 | W | 146 | 1.6 |
| 14.06.2025 | 19:24 | 24.9 | 78 | 20.8 | 1017.5 | 1.4 | NW | 162 | 1.6 |
| 14.06.2025 | 19:27 | 24.9 | 78 | 20.8 | 1017.6 | 1.4 | W | 153 | 1.6 |
| 14.06.2025 | 19:33 | 24.7 | 78 | 20.6 | 1017.7 | 1.4 | WNW | 134 | 1.6 |
| 14.06.2025 | 19:39 | 24.8 | 79 | 20.9 | 1017.6 | 1.4 | N | 121 | 1.6 |
| 14.06.2025 | 19:42 | 24.7 | 79 | 20.8 | 1017.5 | 1.4 | WNW | 114 | 1.6 |
| 14.06.2025 | 19:48 | 24.4 | 80 | 20.7 | 1017.5 | 1.4 | NNW | 67 | 1.6 |
| 14.06.2025 | 19:54 | 24.3 | 81 | 20.8 | 1017.4 | 1.4 | NNW | 51 | 1.6 |
| 14.06.2025 | 19:57 | 24.2 | 81 | 20.7 | 1017.5 | 1.4 | NNW | 49 | 1.6 |
| 14.06.2025 | 20:03 | 23.9 | 82 | 20.6 | 1017.5 | 1.4 | NW | 47 | 1.6 |
| 14.06.2025 | 20:09 | 23.7 | 83 | 20.6 | 1017.4 | 1.4 | WNW | 39 | 1.6 |
| 14.06.2025 | 20:12 | 23.5 | 83 | 20.4 | 1017.4 | 1.4 | WNW | 35 | 1.6 |
| 14.06.2025 | 20:18 | 23.3 | 84 | 20.4 | 1017.5 | 1.4 | NW | 39 | 1.6 |
| 14.06.2025 | 20:24 | 23.2 | 84 | 20.3 | 1017.6 | 1.4 | NW | 21 | 1.6 |
| 14.06.2025 | 20:27 | 23.1 | 84 | 20.2 | 1017.6 | 1.4 | WNW | 14 | 1.6 |
| 14.06.2025 | 20:33 | 22.9 | 85 | 20.2 | 1017.7 | 1.4 | WNW | 11 | 1.6 |
| 14.06.2025 | 20:39 | 22.8 | 85 | 20.1 | 1017.8 | 0.0 | NW | 9 | 1.6 |
| 14.06.2025 | 20:42 | 22.7 | 85 | 20.0 | 1017.8 | 0.0 | NW | 9 | 1.6 |
| 14.06.2025 | 20:48 | 22.6 | 85 | 19.9 | 1017.8 | 1.4 | NW | 7 | 1.6 |
| 14.06.2025 | 20:54 | 22.4 | 86 | 19.9 | 1017.8 | 1.4 | N | 7 | 1.6 |
| 14.06.2025 | 20:57 | 22.4 | 86 | 19.9 | 1017.9 | 1.4 | N | 7 | 1.6 |
| 14.06.2025 | 21:03 | 22.2 | 86 | 19.7 | 1017.9 | 1.4 | WNW | 7 | 1.6 |
| 14.06.2025 | 21:09 | 22.0 | 86 | 19.5 | 1017.9 | 1.4 | WNW | 5 | 1.6 |
| 14.06.2025 | 21:12 | 21.9 | 86 | 19.5 | 1018.0 | 1.4 | W | 5 | 1.6 |
| 14.06.2025 | 21:18 | 21.7 | 87 | 19.4 | 1018.4 | 1.4 | WSW | 0 | 1.6 |
| 14.06.2025 | 21:24 | 21.6 | 87 | 19.3 | 1018.4 | 0.0 | WSW | 0 | 1.6 |
| 14.06.2025 | 21:27 | 21.5 | 87 | 19.2 | 1018.3 | 0.0 | WSW | 0 | 1.6 |
| 14.06.2025 | 21:33 | 21.4 | 87 | 19.1 | 1018.4 | 0.0 | NW | 0 | 1.6 |
| 14.06.2025 | 21:39 | 21.4 | 87 | 19.1 | 1018.5 | 0.0 | NW | 0 | 1.6 |
| 14.06.2025 | 21:42 | 21.4 | 87 | 19.1 | 1018.5 | 1.4 | NNO | 0 | 1.6 |
| 14.06.2025 | 21:48 | 21.3 | 87 | 19.0 | 1018.6 | 1.4 | NNO | 0 | 1.6 |
| 14.06.2025 | 21:54 | 21.3 | 87 | 19.0 | 1018.6 | 0.0 | NNO | 0 | 1.6 |
| 14.06.2025 | 21:57 | 21.2 | 87 | 18.9 | 1018.7 | 0.0 | NNO | 0 | 1.6 |
| 14.06.2025 | 22:03 | 21.0 | 87 | 18.8 | 1018.6 | 1.4 | SW | 0 | 1.6 |
| 14.06.2025 | 22:09 | 20.8 | 87 | 18.6 | 1018.6 | 0.0 | N | 0 | 1.6 |
| 14.06.2025 | 22:12 | 20.8 | 88 | 18.7 | 1018.7 | 0.0 | N | 0 | 1.6 |
| 14.06.2025 | 22:18 | 20.8 | 88 | 18.7 | 1018.8 | 0.0 | N | 0 | 1.6 |
| 14.06.2025 | 22:24 | 20.7 | 87 | 18.5 | 1018.7 | 0.0 | N | 0 | 1.6 |
| 14.06.2025 | 22:27 | 20.7 | 88 | 18.6 | 1018.8 | 0.0 | N | 0 | 1.6 |
| 14.06.2025 | 22:33 | 20.7 | 88 | 18.6 | 1018.8 | 0.0 | N | 0 | 1.6 |
| 14.06.2025 | 22:39 | 20.6 | 88 | 18.5 | 1018.8 | 0.0 | N | 0 | 1.6 |
| 14.06.2025 | 22:42 | 20.6 | 88 | 18.5 | 1018.9 | 0.0 | N | 0 | 1.6 |
| 14.06.2025 | 22:48 | 20.4 | 88 | 18.3 | 1018.9 | 0.0 | N | 0 | 1.6 |
| 14.06.2025 | 22:54 | 20.4 | 88 | 18.3 | 1019.0 | 0.0 | N | 0 | 1.6 |
| 14.06.2025 | 22:57 | 20.3 | 88 | 18.2 | 1018.9 | 0.0 | N | 0 | 1.6 |
| 14.06.2025 | 23:03 | 20.3 | 88 | 18.2 | 1018.9 | 0.0 | NNO | 0 | 1.6 |
| 14.06.2025 | 23:09 | 20.2 | 88 | 18.1 | 1018.9 | 0.0 | NNO | 0 | 1.6 |
| 14.06.2025 | 23:12 | 20.1 | 88 | 18.0 | 1018.8 | 0.0 | NNO | 0 | 1.6 |
| 14.06.2025 | 23:18 | 20.1 | 88 | 18.0 | 1018.8 | 0.0 | N | 0 | 1.6 |
| 14.06.2025 | 23:24 | 20.0 | 88 | 18.0 | 1018.7 | 0.0 | N | 0 | 1.6 |
| 14.06.2025 | 23:27 | 19.9 | 88 | 17.9 | 1018.7 | 0.0 | N | 0 | 1.6 |
| 14.06.2025 | 23:33 | 19.9 | 88 | 17.9 | 1018.7 | 0.0 | N | 0 | 1.6 |
| 14.06.2025 | 23:39 | 19.8 | 88 | 17.8 | 1018.7 | 0.0 | N | 0 | 1.6 |
| 14.06.2025 | 23:42 | 19.8 | 88 | 17.8 | 1018.7 | 0.0 | N | 0 | 1.6 |
| 14.06.2025 | 23:48 | 19.7 | 88 | 17.7 | 1018.6 | 0.0 | N | 0 | 1.6 |
| 14.06.2025 | 23:54 | 19.6 | 88 | 17.6 | 1018.6 | 0.0 | N | 0 | 1.6 |
| 14.06.2025 | 23:57 | 19.6 | 88 | 17.6 | 1018.6 | 0.0 | N | 0 | 1.6 |